San Diego, California
Traffic Map
Current Weather Conditions
San Diego, California
Broken Clouds
Broken Clouds
67°
Feels Like: 67°
Wind Chill: 67° Ceiling: 1000
Heat Index: 67° Visibility: 8mi
Dew Point: 63° Wind: 0mph
Humidity: 87% Direction: ° ()
Pressure: 29.92in Gusts: 0mph
Raw Report DataKSAN 271051Z 00000KT 8SM BKN010 19/17 A2992 RMK AO2 SLP132 T01940172 $
Traffic Incident Summary
Active as of:
Severity:
Category:
InformationThere was an issue retrieving the traffic information for this location. Please try a different location or try again shortly.
Advertisements
Track Severe Weather on mobile